Albion, RI

6:59 PM EDT on October 30, 2014 (GMT -0400)
Woonsocket Oak Grove | Change Station
CLOSE
Current Station
Personal Weather Station
Location: Cumberland, RI
Elevation: 223 ft
Nearby Weather Stations

Elev 223 ft 41.98 °N, 71.48 °W | Updated 3 minutes ago

Clear
Clear
46.5 °F
Feels Like 46 °F
N
1.0
Wind Variable Wind from NW
Gusts 2.0 mph

Today
High -- | Low -- °F
--% Chance of Precip.
Yesterday
High -- | Low -- °F
Precip. -- in
7:15 AM 5:42 PM
Waxing Crescent, 48% visible
Pressure 29.96 in
Visibility 10.0 miles
Clouds Clear
Windchill 46 °F
Dew Point 39 °F
Humidity 76%
Rainfall 0.00 in
Snow Depth Not available.
UV 0 out of 12
Pollen .80 out of 12
Air Quality Not available.
Flu Activity Not available.
METAR KSFZ 302255Z 00000KT 10SM CLR 07/M02 A2996 RMK AO1

More Conditions Fewer Conditions

Pressure 29.96 in
Visibility 10.0 miles
Clouds Clear
Windchill 46 °F
Dew Point 39 °F
Humidity 76%
Rainfall 0.00 in
Snow Depth Not available.
UV 0 out of 12
Pollen .80 out of 12
Air Quality Not available.
Flu Activity Not available.
METAR KSFZ 302255Z 00000KT 10SM CLR 07/M02 A2996 RMK AO1

More Conditions Fewer Conditions

10-Day Weather Forecast

Almanac

Astronomy

Oct. 30, 2014 Rise Set
Actual Time
Civil Twilight
Nautical Twilight
Astronomical Twilight
Moon
Length of Visible Light
Length of Day
Tomorrow will be .
, % of the Moon is Illuminated

Today's Extremes

State Highs State Lows

Community

WunderPhotos

Upload Photos

1,766,488 photos uploaded!

WunderBlogs® & News

Nearby

Air Quality

  Air Quality AQ Index Pollutant
Not available.

Snow Depth

Station Depth Elevation

Earthquake Activity

City Distance Mag. Time & Date
Minimum magnitude displayed is 2.5.

Coastal Water Temperatures

Place Temperature

Nearby Weather Stations